createdAt,value
2019-04-11T00:04:01.926Z,15.80
2019-04-11T00:09:10.198Z,8.23
2019-04-11T00:14:13.909Z,9.73
2019-04-11T00:19:17.282Z,10.48
2019-04-11T00:24:20.810Z,12.57
2019-04-11T00:29:24.116Z,13.07
2019-04-11T00:34:27.401Z,14.63
2019-04-11T00:39:31.865Z,10.93
2019-04-11T00:44:35.154Z,11.07
2019-04-11T00:49:38.745Z,9.27
2019-04-11T00:54:42.764Z,14.43
2019-04-11T00:59:46.789Z,7.53
2019-04-11T01:04:50.848Z,12.83
2019-04-11T01:09:54.807Z,9.00
2019-04-11T01:14:59.373Z,13.40
2019-04-11T01:20:03.023Z,8.60
2019-04-11T01:25:08.394Z,7.83
2019-04-11T01:30:13.773Z,12.17
2019-04-11T01:35:17.302Z,7.47
2019-04-11T01:40:21.357Z,12.57
2019-04-11T01:45:27.566Z,12.97
2019-04-11T01:50:32.804Z,8.33
2019-04-11T01:55:36.762Z,7.47
2019-04-11T02:00:54.686Z,9.23
2019-04-11T02:05:59.154Z,8.60
2019-04-11T02:11:03.383Z,9.15
2019-04-11T02:16:06.778Z,9.23
2019-04-11T02:21:10.071Z,10.87
2019-04-11T02:26:15.069Z,6.30
2019-04-11T02:31:20.432Z,8.07
2019-04-11T02:36:24.985Z,13.40
2019-04-11T02:41:29.858Z,6.27
2019-04-11T02:46:42.558Z,13.00
2019-04-11T02:51:39.129Z,9.30
2019-04-11T02:56:43.603Z,12.80
2019-04-11T03:01:48.601Z,9.23
2019-04-11T03:06:52.630Z,14.10
2019-04-11T03:11:56.778Z,14.13
2019-04-11T03:17:12.026Z,4.93
2019-04-11T03:22:05.572Z,8.07
2019-04-11T03:27:11.318Z,8.83
2019-04-11T03:33:07.993Z,11.73
2019-04-11T03:37:43.160Z,10.80
2019-04-11T03:42:41.712Z,9.50
2019-04-11T03:47:41.263Z,8.27
2019-04-11T03:52:34.870Z,11.83
2019-04-11T03:57:39.420Z,12.68
2019-04-11T04:02:44.441Z,11.00
2019-04-11T04:07:48.855Z,11.07
2019-04-11T04:12:53.605Z,14.27
2019-04-11T04:17:59.761Z,11.67
2019-04-11T04:23:05.782Z,10.47
2019-04-11T04:28:11.706Z,10.87
2019-04-11T04:33:17.066Z,10.53
2019-04-11T04:38:21.151Z,9.50
2019-04-11T04:43:25.126Z,9.40
2019-04-11T04:48:29.967Z,8.83
2019-04-11T04:53:35.462Z,11.00
2019-04-11T04:58:39.993Z,8.83
2019-04-11T05:03:44.640Z,10.43
2019-04-11T05:08:49.273Z,13.37
2019-04-11T05:13:54.335Z,17.20
2019-04-11T05:18:58.335Z,10.70
2019-04-11T05:24:03.970Z,7.58
2019-04-11T05:29:07.326Z,15.93
2019-04-11T05:34:10.619Z,8.67
2019-04-11T05:39:15.970Z,10.40
2019-04-11T05:44:18.929Z,12.73
2019-04-11T05:49:36.789Z,18.10
2019-04-11T05:54:44.054Z,6.97
2019-04-11T05:59:49.922Z,14.63
2019-04-11T06:05:00.588Z,14.47
2019-04-11T06:10:10.159Z,10.80
2019-04-11T06:15:15.692Z,14.53
2019-04-11T06:20:39.704Z,11.10
2019-04-11T06:25:47.503Z,15.27
2019-04-11T06:31:07.708Z,19.23
2019-04-11T06:36:30.114Z,21.30
2019-04-11T06:41:41.073Z,16.03
2019-04-11T06:46:54.419Z,15.90
2019-04-11T06:52:08.543Z,12.27
2019-04-11T06:57:19.535Z,14.13
2019-04-11T07:02:25.087Z,10.10
2019-04-11T07:07:31.981Z,19.00
2019-04-11T07:12:49.365Z,17.23
2019-04-11T07:18:11.904Z,11.93
2019-04-11T07:23:33.476Z,11.37
2019-04-11T07:28:41.678Z,11.67
2019-04-11T07:33:46.681Z,20.80
2019-04-11T07:38:54.573Z,13.27
2019-04-11T07:43:59.234Z,22.97
2019-04-11T07:49:03.735Z,14.90
2019-04-11T07:54:07.114Z,18.30
2019-04-11T07:59:12.885Z,18.30
2019-04-11T08:04:17.866Z,18.40
2019-04-11T08:09:26.767Z,18.03
2019-04-11T08:14:48.662Z,13.30
2019-04-11T08:20:09.670Z,16.60
2019-04-11T08:25:20.925Z,22.63
2019-04-11T08:30:35.050Z,15.17
2019-04-11T08:35:40.257Z,16.30
2019-04-11T08:40:51.401Z,17.67
2019-04-11T08:45:56.683Z,17.87
2019-04-11T08:51:05.231Z,17.30
2019-04-11T08:56:08.602Z,22.03
2019-04-11T09:01:13.840Z,21.50
2019-04-11T09:06:19.015Z,16.23
2019-04-11T09:11:26.651Z,18.90
2019-04-11T09:16:43.706Z,14.07
2019-04-11T09:22:05.362Z,18.93
2019-04-11T09:27:26.858Z,16.70
2019-04-11T09:32:48.671Z,19.17
2019-04-11T09:37:52.064Z,8.63
2019-04-11T09:43:13.544Z,15.67
2019-04-11T09:48:34.289Z,15.23
2019-04-11T09:53:39.517Z,20.23
2019-04-11T09:58:44.173Z,12.50
2019-04-11T10:03:49.019Z,17.03
2019-04-11T10:08:57.662Z,18.37
2019-04-11T10:14:02.586Z,20.03
2019-04-11T10:19:17.685Z,16.43
2019-04-11T10:24:34.789Z,20.33
2019-04-11T10:29:56.763Z,23.23
2019-04-11T10:35:08.195Z,17.27
2019-04-11T10:40:21.987Z,18.73
2019-04-11T10:45:43.123Z,18.03
2019-04-11T10:50:58.355Z,19.53
2019-04-11T10:56:06.418Z,18.77
2019-04-11T11:01:14.257Z,16.10
2019-04-11T11:06:25.014Z,21.00
2019-04-11T11:11:30.461Z,20.73
2019-04-11T11:16:39.406Z,20.37
2019-04-11T11:21:40.413Z,22.22
2019-04-11T11:26:43.716Z,18.23
2019-04-11T11:31:52.464Z,20.17
2019-04-11T11:37:00.661Z,22.37
2019-04-11T11:42:22.118Z,20.47
2019-04-11T11:47:43.280Z,17.57
2019-04-11T11:52:51.153Z,18.70
2019-04-11T11:57:57.181Z,20.97
2019-04-11T12:03:05.334Z,19.97
2019-04-11T12:08:13.632Z,18.00
2019-04-11T12:13:17.214Z,24.60
2019-04-11T12:18:35.127Z,21.60
2019-04-11T12:23:48.654Z,18.93
2019-04-11T12:28:47.876Z,18.83
2019-04-11T12:34:10.284Z,18.83
2019-04-11T12:39:31.522Z,19.10
2019-04-11T12:44:36.467Z,22.30
2019-04-11T12:49:52.283Z,15.33
2019-04-11T12:54:51.331Z,17.77
2019-04-11T12:59:59.213Z,16.00
2019-04-11T13:05:04.387Z,23.50
2019-04-11T13:10:12.198Z,16.80
2019-04-11T13:15:20.090Z,19.45
2019-04-11T13:20:40.984Z,19.80
2019-04-11T13:26:02.300Z,18.20
2019-04-11T13:31:16.288Z,20.17
2019-04-11T13:36:21.216Z,19.83
2019-04-11T13:41:37.842Z,16.27
2019-04-11T13:46:42.773Z,20.50
2019-04-11T13:52:05.629Z,16.60
2019-04-11T13:57:10.617Z,16.17
2019-04-11T14:02:15.785Z,19.73
2019-04-11T14:07:21.287Z,27.07
2019-04-11T14:12:27.342Z,19.20
2019-04-11T14:17:35.003Z,17.13
2019-04-11T14:22:56.134Z,20.60
2019-04-11T14:28:10.182Z,18.43
2019-04-11T14:33:13.581Z,16.73
2019-04-11T14:38:18.557Z,18.67
2019-04-11T14:43:29.774Z,17.80
2019-04-11T14:48:37.835Z,22.10
2019-04-11T14:53:47.208Z,17.13
2019-04-11T14:58:55.562Z,19.70
2019-04-11T15:04:18.774Z,18.37
2019-04-11T15:09:41.537Z,19.40
2019-04-11T15:14:49.508Z,16.40
2019-04-11T15:19:53.154Z,19.03
2019-04-11T15:24:58.423Z,18.23
2019-04-11T15:30:03.375Z,16.80
2019-04-11T15:35:06.857Z,18.93
2019-04-11T15:40:11.776Z,16.67
2019-04-11T15:45:16.731Z,14.43
2019-04-11T15:50:38.123Z,14.40
2019-04-11T15:55:59.369Z,18.40
2019-04-11T16:01:16.537Z,16.87
2019-04-11T16:06:39.232Z,15.90
2019-04-11T16:11:44.214Z,20.63
2019-04-11T16:16:49.264Z,16.43
2019-04-11T16:21:56.892Z,11.33
2019-04-11T16:27:01.826Z,15.47
2019-04-11T16:32:06.766Z,14.07
2019-04-11T16:37:10.731Z,15.37
2019-04-11T16:42:14.032Z,11.57
2019-04-11T16:47:28.277Z,14.67
2019-04-11T16:52:31.584Z,12.27
2019-04-11T16:57:35.162Z,14.97
2019-04-11T17:02:38.544Z,16.13
2019-04-11T17:07:43.511Z,12.77
2019-04-11T17:12:46.767Z,11.47
2019-04-11T17:17:50.168Z,15.20
2019-04-11T17:22:53.471Z,10.90
2019-04-11T17:27:56.769Z,13.23
2019-04-11T17:33:00.241Z,9.53
2019-04-11T17:38:06.418Z,10.00
2019-04-11T17:43:09.001Z,11.37
2019-04-11T17:48:12.781Z,11.97
2019-04-11T17:53:16.213Z,13.80
2019-04-11T17:58:19.568Z,10.80
2019-04-11T18:03:22.925Z,14.90
2019-04-11T18:08:26.281Z,14.03
2019-04-11T18:13:31.422Z,11.17
2019-04-11T18:18:35.796Z,10.10
2019-04-11T18:23:39.522Z,8.30
2019-04-11T18:28:42.889Z,11.60
2019-04-11T18:33:46.205Z,13.70
2019-04-11T18:38:49.505Z,25.40
2019-04-11T18:43:52.815Z,12.93
2019-04-11T18:48:56.121Z,12.53
2019-04-11T18:54:00.502Z,16.17
2019-04-11T18:59:04.385Z,16.07
2019-04-11T19:04:11.746Z,11.50
2019-04-11T19:09:14.832Z,11.77
2019-04-11T19:14:18.398Z,11.13
2019-04-11T19:19:21.673Z,13.37
2019-04-11T19:24:35.099Z,15.47
2019-04-11T19:29:29.981Z,10.80
2019-04-11T19:34:33.365Z,7.73
2019-04-11T19:39:36.723Z,8.50
2019-04-11T19:44:40.106Z,7.03
2019-04-11T19:49:43.472Z,6.90
2019-04-11T19:54:46.781Z,4.47
2019-04-11T19:59:50.279Z,5.10
2019-04-11T20:04:57.658Z,5.07
2019-04-11T20:10:00.843Z,6.07
2019-04-11T20:15:05.632Z,10.63
2019-04-11T20:20:09.155Z,7.00
2019-04-11T20:25:15.986Z,5.10
2019-04-11T20:30:17.531Z,6.97
2019-04-11T20:35:28.735Z,9.53
2019-04-11T20:40:26.317Z,8.97
2019-04-11T20:45:31.238Z,8.03
2019-04-11T20:50:34.527Z,6.60
2019-04-11T20:55:39.272Z,2.43
2019-04-11T21:00:50.356Z,5.83
2019-04-11T21:05:48.360Z,10.63
2019-04-11T21:10:52.089Z,8.07
2019-04-11T21:15:55.364Z,6.93
2019-04-11T21:20:58.637Z,6.20
2019-04-11T21:26:02.057Z,6.90
2019-04-11T21:31:05.443Z,5.57
2019-04-11T21:36:08.751Z,7.47
2019-04-11T21:41:12.247Z,3.33
2019-04-11T21:46:15.585Z,5.23
2019-04-11T21:51:18.995Z,7.03
2019-04-11T21:56:22.286Z,9.67
2019-04-11T22:01:25.909Z,3.83
2019-04-11T22:06:30.493Z,5.33
2019-04-11T22:11:34.322Z,10.27
2019-04-11T22:16:37.603Z,7.67
2019-04-11T22:21:45.048Z,7.20
2019-04-11T22:26:50.336Z,4.47
2019-04-11T22:31:50.934Z,5.50
2019-04-11T22:36:54.224Z,4.37
2019-04-11T22:41:57.519Z,10.13
2019-04-11T22:47:00.814Z,7.50
2019-04-11T22:52:04.099Z,8.57
2019-04-11T22:57:07.397Z,5.60
2019-04-11T23:02:18.088Z,7.40
2019-04-11T23:07:21.374Z,2.93
2019-04-11T23:12:24.664Z,7.73
2019-04-11T23:17:27.954Z,3.62
2019-04-11T23:22:31.244Z,6.83
2019-04-11T23:27:34.534Z,7.90
2019-04-11T23:32:37.877Z,4.17
2019-04-11T23:37:51.797Z,7.90
2019-04-11T23:42:55.240Z,3.30
2019-04-11T23:47:58.530Z,5.93
2019-04-11T23:53:01.832Z,5.00
2019-04-11T23:58:05.116Z,2.57
